createdAt,value
2023-05-22T10:02:29.328Z,97671.31
2023-05-22T10:05:01.657Z,97672.31
2023-05-22T10:07:39.263Z,97667.38
2023-05-22T10:10:10.988Z,97671.25
2023-05-22T10:12:53.785Z,97672.56
2023-05-22T10:15:23.924Z,97669.03
2023-05-22T10:17:58.660Z,97660.81
2023-05-22T10:20:30.141Z,97660.94
2023-05-22T10:23:01.125Z,97655.84
2023-05-22T10:25:31.464Z,97657.63
2023-05-22T10:28:07.062Z,97656.06
2023-05-22T10:30:45.771Z,97650.69
2023-05-22T10:33:45.556Z,97644.34
2023-05-22T10:36:30.597Z,97644.63
2023-05-22T10:39:23.828Z,97642.72
2023-05-22T10:42:25.416Z,97637.28
2023-05-22T10:44:55.405Z,97642.59
2023-05-22T10:47:25.363Z,97640.63
2023-05-22T10:50:05.634Z,97639.78
2023-05-22T10:55:53.316Z,97643.00
2023-05-22T10:58:33.282Z,97636.31
2023-05-22T11:02:01.960Z,97633.34
2023-05-22T11:04:32.701Z,97636.69
2023-05-22T11:07:08.164Z,97626.78
2023-05-22T11:09:48.748Z,97632.16
2023-05-22T11:12:26.853Z,97636.03
2023-05-22T11:15:01.577Z,97624.88
2023-05-22T11:17:33.130Z,97631.19
2023-05-22T11:20:03.346Z,97628.25
2023-05-22T11:22:54.282Z,97627.13
2023-05-22T11:25:35.209Z,97619.00
2023-05-22T11:28:22.798Z,97611.63
2023-05-22T11:30:56.241Z,97617.38
2023-05-22T11:33:26.298Z,97607.44
2023-05-22T11:35:56.411Z,97606.88
2023-05-22T11:38:30.653Z,97609.53
2023-05-22T11:41:00.949Z,97610.06
2023-05-22T11:43:35.405Z,97610.41
2023-05-22T11:46:13.456Z,97602.63
2023-05-22T11:48:46.398Z,97596.91
2023-05-22T11:54:50.111Z,97603.47
2023-05-22T11:57:21.314Z,97602.09
2023-05-22T11:59:50.717Z,97598.81
2023-05-22T12:02:21.453Z,97594.78
2023-05-22T12:04:58.885Z,97594.69
2023-05-22T12:07:30.562Z,97586.00
2023-05-22T12:10:02.107Z,97593.81
2023-05-22T12:12:32.624Z,97583.47
2023-05-22T12:15:07.353Z,97586.94
2023-05-22T12:17:39.885Z,97587.88
2023-05-22T12:20:13.846Z,97583.69
2023-05-22T12:22:44.946Z,97583.09
2023-05-22T12:25:19.525Z,97572.25
2023-05-22T12:27:49.388Z,97571.06
2023-05-22T12:30:18.929Z,97566.19
2023-05-22T12:32:52.664Z,97567.47
2023-05-22T12:35:21.922Z,97565.03
2023-05-22T12:37:52.622Z,97563.53
2023-05-22T12:40:21.874Z,97565.53
2023-05-22T12:42:51.196Z,97557.97
2023-05-22T12:45:21.122Z,97562.59
2023-05-22T15:17:55.301Z,97693.38
